Main page
Satellite images 15-day forecastsClimateMarine weather Cyclones Lightning AirportsFAQ Newsletter About
Weather : Europe Africa North America South America Asia Australia-Oceania Others
Languages Contact

Gomel, Belarus

latitude: 52-31-36N, longitude: 031-01-06E, elevation: 144 m


METAR: UMGG 182100Z VRB02MPS CAVOK 10/05 Q1028 R28/CLRD// NOSIG
short-TAF: out of date (17904 hours)
long-TAF: UMGG 181645Z 1818/1918 VRB02MPS CAVOK TEMPO 1820/1906 1200 BCFG BR FU SCT004 FM190600 11005MPS

Time: 00:43 (21:43 UTC)

Current weather observation

The report was made 42 minutes ago, at 21:00 UTC  
Wind 4 kt from variable directions
Temperature 10°C
Humidity 71%
Pressure 1028 hPa
Visibility 10 km or more
no clouds below 1500 m and no cumulonimbus

Change units

Forecast

The report was made 3 hours and 20 minutes ago, at 18:23 UTC  
Forecast valid from 18 at 18 UTC to 19 at 18 UTC
Wind 4 kt from variable directions
Visibility 10 km or more
no clouds below 1500 m and no cumulonimbus
Temporary
from 18 at 20 UTC to 19 at 06 UTC
Visibility 1200 m
Scattered clouds at a height of 400 ft
patches of fog and mist and smoke
From 19 at 0600 UTC
Wind 10 kt from the East/Southeast
The information on this site is subject to a disclaimer
Weather : Europe Africa North America South America Asia Australia-Oceania Others
Satellite images 15-day forecastsClimateMarine weather Cyclones Lightning AirportsFAQ Languages Contact Newsletter About